sensor_id;sensor_type;location;lat;lon;timestamp;pressure;altitude;pressure_sealevel;temperature;humidity
73628;BME280;61923;51.846;5.856;2023-01-16T00:02:11;99510.69;;;13.52;64.84
73628;BME280;61923;51.846;5.856;2023-01-16T00:04:36;99513.63;;;13.49;64.71
73628;BME280;61923;51.846;5.856;2023-01-16T00:07:02;99503.13;;;13.42;64.72
73628;BME280;61923;51.846;5.856;2023-01-16T00:09:27;99503.75;;;13.44;65.16
73628;BME280;61923;51.846;5.856;2023-01-16T00:11:53;99498.78;;;13.49;64.82
73628;BME280;61923;51.846;5.856;2023-01-16T00:14:18;99496.00;;;13.51;64.97
73628;BME280;61923;51.846;5.856;2023-01-16T00:16:43;99496.19;;;13.49;64.82
73628;BME280;61923;51.846;5.856;2023-01-16T00:19:09;99488.72;;;13.46;65.11
73628;BME280;61923;51.846;5.856;2023-01-16T00:21:34;99483.50;;;13.46;65.20
73628;BME280;61923;51.846;5.856;2023-01-16T00:24:01;99477.47;;;13.46;65.24
73628;BME280;61923;51.846;5.856;2023-01-16T00:26:27;99480.69;;;13.48;65.23
73628;BME280;61923;51.846;5.856;2023-01-16T00:28:53;99474.50;;;13.49;65.15
73628;BME280;61923;51.846;5.856;2023-01-16T00:31:19;99482.34;;;13.49;65.14
73628;BME280;61923;51.846;5.856;2023-01-16T00:33:45;99482.97;;;13.51;64.90
73628;BME280;61923;51.846;5.856;2023-01-16T00:36:11;99475.47;;;13.48;65.11
73628;BME280;61923;51.846;5.856;2023-01-16T00:38:37;99469.94;;;13.51;65.33
73628;BME280;61923;51.846;5.856;2023-01-16T00:41:02;99444.38;;;13.31;65.08
73628;BME280;61923;51.846;5.856;2023-01-16T00:43:28;99470.28;;;13.48;65.17
73628;BME280;61923;51.846;5.856;2023-01-16T00:45:53;99460.22;;;13.45;65.51
73628;BME280;61923;51.846;5.856;2023-01-16T00:48:19;99470.28;;;13.48;65.22
73628;BME280;61923;51.846;5.856;2023-01-16T00:50:44;99458.22;;;13.47;65.42
73628;BME280;61923;51.846;5.856;2023-01-16T00:53:10;99461.81;;;13.46;65.47
73628;BME280;61923;51.846;5.856;2023-01-16T00:55:35;99451.38;;;13.46;65.59
73628;BME280;61923;51.846;5.856;2023-01-16T00:58:03;99443.75;;;13.44;65.67
73628;BME280;61923;51.846;5.856;2023-01-16T01:00:29;99437.09;;;13.42;65.74
73628;BME280;61923;51.846;5.856;2023-01-16T01:02:54;99419.28;;;13.30;65.96
73628;BME280;61923;51.846;5.856;2023-01-16T01:05:20;99434.47;;;13.42;65.76
73628;BME280;61923;51.846;5.856;2023-01-16T01:07:45;99423.41;;;13.40;65.85
73628;BME280;61923;51.846;5.856;2023-01-16T01:10:11;99423.06;;;13.43;65.82
73628;BME280;61923;51.846;5.856;2023-01-16T01:12:36;99417.84;;;13.43;65.93
73628;BME280;61923;51.846;5.856;2023-01-16T01:15:02;99420.91;;;13.46;65.89
73628;BME280;61923;51.846;5.856;2023-01-16T01:17:28;99414.88;;;13.46;65.96
73628;BME280;61923;51.846;5.856;2023-01-16T01:19:53;99412.09;;;13.47;65.84
73628;BME280;61923;51.846;5.856;2023-01-16T01:22:19;99404.03;;;13.42;65.96
73628;BME280;61923;51.846;5.856;2023-01-16T01:24:48;99411.13;;;13.48;65.69
73628;BME280;61923;51.846;5.856;2023-01-16T01:27:17;99402.03;;;13.44;66.01
73628;BME280;61923;51.846;5.856;2023-01-16T01:29:43;99400.22;;;13.45;65.93
73628;BME280;61923;51.846;5.856;2023-01-16T01:32:08;99394.00;;;13.46;65.90
73628;BME280;61923;51.846;5.856;2023-01-16T01:34:34;99396.00;;;13.44;66.01
73628;BME280;61923;51.846;5.856;2023-01-16T01:37:07;99394.84;;;13.46;65.83
73628;BME280;61923;51.846;5.856;2023-01-16T01:39:33;99395.47;;;13.48;65.85
73628;BME280;61923;51.846;5.856;2023-01-16T01:41:58;99394.00;;;13.46;65.90
73628;BME280;61923;51.846;5.856;2023-01-16T01:45:06;99383.50;;;13.39;65.70
73628;BME280;61923;51.846;5.856;2023-01-16T01:47:37;99372.34;;;13.45;65.96
73628;BME280;61923;51.846;5.856;2023-01-16T01:50:15;99358.59;;;13.37;66.36
73628;BME280;61923;51.846;5.856;2023-01-16T01:52:43;99363.09;;;13.43;66.22
73628;BME280;61923;51.846;5.856;2023-01-16T01:55:12;99361.75;;;13.47;66.45
73628;BME280;61923;51.846;5.856;2023-01-16T01:57:42;99358.50;;;13.45;66.49
73628;BME280;61923;51.846;5.856;2023-01-16T02:00:17;99344.47;;;13.46;66.39
73628;BME280;61923;51.846;5.856;2023-01-16T02:03:13;99344.22;;;13.41;66.16
73628;BME280;61923;51.846;5.856;2023-01-16T02:05:43;99344.47;;;13.46;66.78
73628;BME280;61923;51.846;5.856;2023-01-16T02:08:14;99342.06;;;13.44;66.53
73628;BME280;61923;51.846;5.856;2023-01-16T02:10:43;99324.97;;;13.42;66.68
73628;BME280;61923;51.846;5.856;2023-01-16T02:13:11;99327.22;;;13.45;66.80
73628;BME280;61923;51.846;5.856;2023-01-16T02:15:37;99318.50;;;13.38;66.65
73628;BME280;61923;51.846;5.856;2023-01-16T02:18:23;99307.09;;;13.39;66.90
73628;BME280;61923;51.846;5.856;2023-01-16T02:21:29;99301.59;;;13.33;67.01
73628;BME280;61923;51.846;5.856;2023-01-16T02:24:41;99294.41;;;13.35;66.92
73628;BME280;61923;51.846;5.856;2023-01-16T02:30:09;99283.97;;;13.35;66.74
73628;BME280;61923;51.846;5.856;2023-01-16T02:33:14;99281.13;;;13.30;67.00
73628;BME280;61923;51.846;5.856;2023-01-16T02:35:52;99275.25;;;13.28;66.88
73628;BME280;61923;51.846;5.856;2023-01-16T02:38:29;99272.19;;;13.25;67.02
73628;BME280;61923;51.846;5.856;2023-01-16T02:43:52;99259.34;;;13.23;67.16
73628;BME280;61923;51.846;5.856;2023-01-16T02:46:44;99254.13;;;13.23;67.09
73628;BME280;61923;51.846;5.856;2023-01-16T02:49:30;99251.50;;;13.23;67.13
73628;BME280;61923;51.846;5.856;2023-01-16T02:52:13;99233.25;;;13.23;66.96
73628;BME280;61923;51.846;5.856;2023-01-16T02:54:50;99215.47;;;13.12;66.98
73628;BME280;61923;51.846;5.856;2023-01-16T02:57:20;99228.44;;;13.20;67.12
73628;BME280;61923;51.846;5.856;2023-01-16T02:59:50;99221.25;;;13.22;67.00
73628;BME280;61923;51.846;5.856;2023-01-16T03:02:15;99224.03;;;13.21;66.99
73628;BME280;61923;51.846;5.856;2023-01-16T03:04:48;99217.00;;;13.21;66.79
73628;BME280;61923;51.846;5.856;2023-01-16T03:18:19;99170.88;;;13.37;67.06
73628;BME280;61923;51.846;5.856;2023-01-16T03:21:07;99170.13;;;13.28;67.46
73628;BME280;61923;51.846;5.856;2023-01-16T03:32:07;99137.28;;;13.12;67.32
73628;BME280;61923;51.846;5.856;2023-01-16T03:34:48;99151.22;;;13.19;67.45
73628;BME280;61923;51.846;5.856;2023-01-16T03:37:22;99141.41;;;13.21;67.36
73628;BME280;61923;51.846;5.856;2023-01-16T03:39:54;99134.59;;;13.20;67.47
73628;BME280;61923;51.846;5.856;2023-01-16T03:42:29;99131.38;;;13.18;67.32
73628;BME280;61923;51.846;5.856;2023-01-16T03:45:02;99119.50;;;13.15;67.56
73628;BME280;61923;51.846;5.856;2023-01-16T03:47:35;99113.13;;;13.18;67.33
73628;BME280;61923;51.846;5.856;2023-01-16T03:50:05;99103.31;;;13.20;67.35
73628;BME280;61923;51.846;5.856;2023-01-16T03:52:36;99097.84;;;13.15;67.70
73628;BME280;61923;51.846;5.856;2023-01-16T03:57:47;99082.78;;;13.10;67.77
73628;BME280;61923;51.846;5.856;2023-01-16T04:00:16;99079.59;;;13.15;67.63
73628;BME280;61923;51.846;5.856;2023-01-16T04:02:44;99073.13;;;13.11;67.65
73628;BME280;61923;51.846;5.856;2023-01-16T04:05:23;99066.50;;;13.08;67.60
73628;BME280;61923;51.846;5.856;2023-01-16T04:08:21;99064.69;;;13.09;67.69
73628;BME280;61923;51.846;5.856;2023-01-16T04:10:48;99049.06;;;13.09;67.60
73628;BME280;61923;51.846;5.856;2023-01-16T04:13:19;99036.22;;;13.07;67.47
73628;BME280;61923;51.846;5.856;2023-01-16T04:15:50;99032.06;;;13.13;67.53
73628;BME280;61923;51.846;5.856;2023-01-16T04:18:19;99019.22;;;13.11;67.66
73628;BME280;61923;51.846;5.856;2023-01-16T04:20:47;99018.41;;;13.11;67.74
73628;BME280;61923;51.846;5.856;2023-01-16T04:23:14;99010.16;;;13.07;67.70
73628;BME280;61923;51.846;5.856;2023-01-16T04:25:41;98997.94;;;13.08;67.73
73628;BME280;61923;51.846;5.856;2023-01-16T04:28:07;99002.53;;;13.06;67.63
73628;BME280;61923;51.846;5.856;2023-01-16T04:30:32;98985.09;;;13.06;67.73
73628;BME280;61923;51.846;5.856;2023-01-16T04:33:04;98982.50;;;13.06;67.84
73628;BME280;61923;51.846;5.856;2023-01-16T04:35:30;98973.22;;;13.04;67.88
73628;BME280;61923;51.846;5.856;2023-01-16T04:37:55;98964.81;;;13.02;67.83
73628;BME280;61923;51.846;5.856;2023-01-16T04:40:21;98941.50;;;12.93;67.71
73628;BME280;61923;51.846;5.856;2023-01-16T04:42:46;98942.38;;;13.01;67.75
73628;BME280;61923;51.846;5.856;2023-01-16T04:45:12;98931.94;;;13.01;67.96
73628;BME280;61923;51.846;5.856;2023-01-16T04:47:37;98931.94;;;13.01;67.76
73628;BME280;61923;51.846;5.856;2023-01-16T04:50:03;98922.50;;;13.00;67.79
73628;BME280;61923;51.846;5.856;2023-01-16T04:52:28;98916.31;;;13.01;67.81
73628;BME280;61923;51.846;5.856;2023-01-16T04:54:53;98912.91;;;13.00;67.84
73628;BME280;61923;51.846;5.856;2023-01-16T04:57:19;98902.66;;;12.99;67.77
73628;BME280;61923;51.846;5.856;2023-01-16T04:59:44;98890.00;;;12.95;67.71
73628;BME280;61923;51.846;5.856;2023-01-16T05:02:10;98885.41;;;12.98;67.86
73628;BME280;61923;51.846;5.856;2023-01-16T05:04:35;98871.56;;;12.97;67.76
73628;BME280;61923;51.846;5.856;2023-01-16T05:07:01;98863.34;;;12.93;67.87
73628;BME280;61923;51.846;5.856;2023-01-16T05:09:26;98864.56;;;12.98;67.64
73628;BME280;61923;51.846;5.856;2023-01-16T05:11:52;98847.09;;;12.91;67.72
73628;BME280;61923;51.846;5.856;2023-01-16T05:14:17;98857.56;;;12.98;67.22
73628;BME280;61923;51.846;5.856;2023-01-16T05:16:42;98847.69;;;12.93;67.76
73628;BME280;61923;51.846;5.856;2023-01-16T05:19:08;98840.06;;;12.92;67.90
73628;BME280;61923;51.846;5.856;2023-01-16T05:21:34;98830.06;;;12.95;67.72
73628;BME280;61923;51.846;5.856;2023-01-16T05:24:00;98816.44;;;12.93;67.41
73628;BME280;61923;51.846;5.856;2023-01-16T05:26:25;98814.84;;;12.92;67.88
73628;BME280;61923;51.846;5.856;2023-01-16T05:28:51;98805.59;;;12.90;68.14
73628;BME280;61923;51.846;5.856;2023-01-16T05:31:16;98799.56;;;12.89;67.89
73628;BME280;61923;51.846;5.856;2023-01-16T05:33:42;98795.16;;;12.90;67.92
73628;BME280;61923;51.846;5.856;2023-01-16T05:36:07;98789.97;;;12.90;67.72
73628;BME280;61923;51.846;5.856;2023-01-16T05:38:33;98785.94;;;12.87;67.97
73628;BME280;61923;51.846;5.856;2023-01-16T05:40:58;98767.09;;;12.85;67.79
73628;BME280;61923;51.846;5.856;2023-01-16T05:43:24;98756.50;;;12.93;67.71
73628;BME280;61923;51.846;5.856;2023-01-16T05:45:49;98755.09;;;12.91;67.96
73628;BME280;61923;51.846;5.856;2023-01-16T05:48:15;98739.84;;;12.88;67.80
73628;BME280;61923;51.846;5.856;2023-01-16T05:50:40;98732.28;;;12.93;67.81
73628;BME280;61923;51.846;5.856;2023-01-16T05:53:05;98730.28;;;12.95;67.80
73628;BME280;61923;51.846;5.856;2023-01-16T05:55:33;98726.03;;;12.87;67.96
73628;BME280;61923;51.846;5.856;2023-01-16T05:58:03;98726.63;;;12.89;67.89
73628;BME280;61923;51.846;5.856;2023-01-16T06:00:28;98703.78;;;12.85;67.75
73628;BME280;61923;51.846;5.856;2023-01-16T06:02:54;98697.53;;;12.79;67.91
73628;BME280;61923;51.846;5.856;2023-01-16T06:05:19;98689.97;;;12.84;68.19
73628;BME280;61923;51.846;5.856;2023-01-16T06:07:44;98686.34;;;12.85;68.05
73628;BME280;61923;51.846;5.856;2023-01-16T06:10:10;98676.94;;;12.84;67.92
73628;BME280;61923;51.846;5.856;2023-01-16T06:12:35;98672.53;;;12.85;68.05
73628;BME280;61923;51.846;5.856;2023-01-16T06:15:01;98662.91;;;12.85;67.85
73628;BME280;61923;51.846;5.856;2023-01-16T06:17:26;98654.66;;;12.82;68.03
73628;BME280;61923;51.846;5.856;2023-01-16T06:19:52;98637.63;;;12.79;68.04
73628;BME280;61923;51.846;5.856;2023-01-16T06:22:17;98636.44;;;12.82;67.99
73628;BME280;61923;51.846;5.856;2023-01-16T06:24:43;98623.22;;;12.83;67.91
73628;BME280;61923;51.846;5.856;2023-01-16T06:27:08;98619.63;;;12.84;67.90
73628;BME280;61923;51.846;5.856;2023-01-16T06:29:34;98592.38;;;12.80;67.71
73628;BME280;61923;51.846;5.856;2023-01-16T06:31:59;98601.78;;;12.81;67.77
73628;BME280;61923;51.846;5.856;2023-01-16T06:34:25;98598.56;;;12.79;67.96
73628;BME280;61923;51.846;5.856;2023-01-16T06:36:51;98584.50;;;12.73;67.97
73628;BME280;61923;51.846;5.856;2023-01-16T06:39:16;98592.38;;;12.80;67.83
73628;BME280;61923;51.846;5.856;2023-01-16T06:41:42;98583.94;;;12.78;67.93
73628;BME280;61923;51.846;5.856;2023-01-16T06:44:08;98577.91;;;12.78;67.87
73628;BME280;61923;51.846;5.856;2023-01-16T06:46:34;98577.13;;;12.77;67.84
73628;BME280;61923;51.846;5.856;2023-01-16T06:48:59;98579.91;;;12.75;68.02
73628;BME280;61923;51.846;5.856;2023-01-16T06:51:24;98577.31;;;12.75;67.89
73628;BME280;61923;51.846;5.856;2023-01-16T06:53:50;98578.13;;;12.76;67.66
73628;BME280;61923;51.846;5.856;2023-01-16T06:56:15;98569.53;;;12.95;67.64
73628;BME280;61923;51.846;5.856;2023-01-16T06:58:42;98567.19;;;13.14;67.02
73628;BME280;61923;51.846;5.856;2023-01-16T07:01:07;98568.41;;;13.18;67.04
73628;BME280;61923;51.846;5.856;2023-01-16T07:03:33;98541.69;;;12.89;67.42
73628;BME280;61923;51.846;5.856;2023-01-16T07:05:58;98561.16;;;13.00;67.46
73628;BME280;61923;51.846;5.856;2023-01-16T07:08:24;98554.09;;;12.94;67.62
73628;BME280;61923;51.846;5.856;2023-01-16T07:10:49;98543.91;;;12.92;67.82
73628;BME280;61923;51.846;5.856;2023-01-16T07:13:14;98519.88;;;13.10;67.72
73628;BME280;61923;51.846;5.856;2023-01-16T07:15:44;98510.84;;;13.20;67.25
73628;BME280;61923;51.846;5.856;2023-01-16T07:18:29;98502.44;;;13.24;67.16
73628;BME280;61923;51.846;5.856;2023-01-16T07:21:13;98497.22;;;13.11;66.67
73628;BME280;61923;51.846;5.856;2023-01-16T07:24:01;98496.19;;;13.12;66.42
73628;BME280;61923;51.846;5.856;2023-01-16T07:26:28;98489.00;;;13.21;66.09
73628;BME280;61923;51.846;5.856;2023-01-16T07:28:53;98491.41;;;13.29;66.44
73628;BME280;61923;51.846;5.856;2023-01-16T07:31:21;98467.72;;;13.24;65.43
73628;BME280;61923;51.846;5.856;2023-01-16T07:33:46;98455.91;;;13.21;65.75
73628;BME280;61923;51.846;5.856;2023-01-16T07:36:11;98440.09;;;13.16;65.61
73628;BME280;61923;51.846;5.856;2023-01-16T07:38:37;98429.88;;;13.01;65.67
73628;BME280;61923;51.846;5.856;2023-01-16T07:41:02;98431.69;;;13.01;65.47
73628;BME280;61923;51.846;5.856;2023-01-16T07:43:29;98414.84;;;12.97;65.46
73628;BME280;61923;51.846;5.856;2023-01-16T07:45:54;98410.63;;;12.95;65.38
73628;BME280;61923;51.846;5.856;2023-01-16T07:48:21;98402.81;;;12.95;64.73
73628;BME280;61923;51.846;5.856;2023-01-16T07:50:54;98395.59;;;12.98;64.71
73628;BME280;61923;51.846;5.856;2023-01-16T07:53:22;98388.38;;;13.00;64.34
73628;BME280;61923;51.846;5.856;2023-01-16T07:55:49;98373.16;;;13.03;63.85
73628;BME280;61923;51.846;5.856;2023-01-16T07:58:16;98382.56;;;12.98;64.16
73628;BME280;61923;51.846;5.856;2023-01-16T08:00:41;98369.97;;;12.94;64.49
73628;BME280;61923;51.846;5.856;2023-01-16T08:03:07;98353.13;;;12.90;64.85
73628;BME280;61923;51.846;5.856;2023-01-16T08:05:32;98340.69;;;12.86;65.03
73628;BME280;61923;51.846;5.856;2023-01-16T08:07:57;98337.72;;;12.82;65.20
73628;BME280;61923;51.846;5.856;2023-01-16T08:10:23;98333.72;;;12.86;65.09
73628;BME280;61923;51.846;5.856;2023-01-16T08:12:48;98329.50;;;12.85;65.01
73628;BME280;61923;51.846;5.856;2023-01-16T08:15:13;98319.88;;;12.86;65.04
73628;BME280;61923;51.846;5.856;2023-01-16T08:17:39;98314.28;;;12.82;65.33
73628;BME280;61923;51.846;5.856;2023-01-16T08:20:08;98304.66;;;12.83;65.23
73628;BME280;61923;51.846;5.856;2023-01-16T08:22:34;98300.84;;;12.85;65.10
73628;BME280;61923;51.846;5.856;2023-01-16T08:24:59;98297.63;;;12.83;65.46
73628;BME280;61923;51.846;5.856;2023-01-16T08:27:24;98274.41;;;12.82;65.17
73628;BME280;61923;51.846;5.856;2023-01-16T08:29:50;98278.03;;;12.81;65.47
73628;BME280;61923;51.846;5.856;2023-01-16T08:32:15;98264.81;;;12.82;65.28
73628;BME280;61923;51.846;5.856;2023-01-16T08:34:41;98255.38;;;12.81;65.13
73628;BME280;61923;51.846;5.856;2023-01-16T08:37:07;98255.56;;;12.80;65.37
73628;BME280;61923;51.846;5.856;2023-01-16T08:39:36;98232.94;;;12.80;65.23
73628;BME280;61923;51.846;5.856;2023-01-16T08:42:01;98234.53;;;12.81;65.62
73628;BME280;61923;51.846;5.856;2023-01-16T08:44:45;98224.72;;;12.83;65.27
73628;BME280;61923;51.846;5.856;2023-01-16T08:47:29;98219.69;;;12.82;65.38
73628;BME280;61923;51.846;5.856;2023-01-16T08:50:16;98230.94;;;12.82;65.41
73628;BME280;61923;51.846;5.856;2023-01-16T08:53:01;98203.91;;;12.77;65.45
73628;BME280;61923;51.846;5.856;2023-01-16T08:55:27;98196.88;;;12.77;65.41
73628;BME280;61923;51.846;5.856;2023-01-16T08:57:52;98191.09;;;12.75;65.49
73628;BME280;61923;51.846;5.856;2023-01-16T09:00:29;98184.47;;;12.79;65.27
73628;BME280;61923;51.846;5.856;2023-01-16T09:02:55;98187.47;;;12.83;65.29
73628;BME280;61923;51.846;5.856;2023-01-16T09:05:22;98177.25;;;12.81;65.40
73628;BME280;61923;51.846;5.856;2023-01-16T09:07:48;98175.66;;;12.80;65.23
73628;BME280;61923;51.846;5.856;2023-01-16T09:10:14;98162.03;;;12.78;65.34
73628;BME280;61923;51.846;5.856;2023-01-16T09:12:40;98179.25;;;12.79;65.39
73628;BME280;61923;51.846;5.856;2023-01-16T09:15:25;98170.84;;;12.77;65.30
73628;BME280;61923;51.846;5.856;2023-01-16T09:17:50;98160.81;;;12.81;65.45
73628;BME280;61923;51.846;5.856;2023-01-16T09:20:16;98154.59;;;12.82;65.42
73628;BME280;61923;51.846;5.856;2023-01-16T09:22:42;98146.19;;;12.80;65.21
73628;BME280;61923;51.846;5.856;2023-01-16T09:25:08;98143.19;;;12.83;65.45
73628;BME280;61923;51.846;5.856;2023-01-16T09:27:33;98149.19;;;12.83;65.42
73628;BME280;61923;51.846;5.856;2023-01-16T09:29:59;98145.00;;;12.82;65.20
73628;BME280;61923;51.846;5.856;2023-01-16T09:32:25;98142.78;;;12.79;65.43
73628;BME280;61923;51.846;5.856;2023-01-16T09:34:50;98136.75;;;12.85;65.34
73628;BME280;61923;51.846;5.856;2023-01-16T09:37:16;98126.34;;;12.85;65.30
73628;BME280;61923;51.846;5.856;2023-01-16T09:39:42;98127.34;;;12.84;65.42
73628;BME280;61923;51.846;5.856;2023-01-16T09:44:57;98107.56;;;12.77;65.41
73628;BME280;61923;51.846;5.856;2023-01-16T09:47:25;98126.13;;;12.87;65.27
73628;BME280;61923;51.846;5.856;2023-01-16T09:52:47;98118.72;;;12.90;65.21
73628;BME280;61923;51.846;5.856;2023-01-16T09:55:45;98104.28;;;12.88;64.92
73628;BME280;61923;51.846;5.856;2023-01-16T09:58:30;98100.50;;;12.84;65.28
73628;BME280;61923;51.846;5.856;2023-01-16T10:01:03;98103.28;;;12.89;65.42
73628;BME280;61923;51.846;5.856;2023-01-16T10:03:29;98112.09;;;12.88;65.29
73628;BME280;61923;51.846;5.856;2023-01-16T10:06:34;98103.88;;;12.91;65.28
73628;BME280;61923;51.846;5.856;2023-01-16T10:09:16;98098.88;;;12.89;65.22
73628;BME280;61923;51.846;5.856;2023-01-16T10:11:56;98095.88;;;12.86;65.38
73628;BME280;61923;51.846;5.856;2023-01-16T10:25:15;98070.41;;;12.94;65.28
73628;BME280;61923;51.846;5.856;2023-01-16T10:30:28;98054.19;;;12.92;65.26
73628;BME280;61923;51.846;5.856;2023-01-16T10:33:14;98043.75;;;12.92;65.17
73628;BME280;61923;51.846;5.856;2023-01-16T10:35:45;98042.16;;;12.91;65.31
73628;BME280;61923;51.846;5.856;2023-01-16T10:38:22;98038.97;;;12.89;65.19
73628;BME280;61923;51.846;5.856;2023-01-16T10:40:56;98040.13;;;12.93;65.16
73628;BME280;61923;51.846;5.856;2023-01-16T10:43:33;98016.94;;;12.85;65.24
73628;BME280;61923;51.846;5.856;2023-01-16T10:46:20;98018.50;;;12.93;65.33
73628;BME280;61923;51.846;5.856;2023-01-16T10:49:09;98020.09;;;12.94;65.15
73628;BME280;61923;51.846;5.856;2023-01-16T10:51:58;98002.09;;;12.86;65.24
73628;BME280;61923;51.846;5.856;2023-01-16T10:54:25;98002.94;;;12.86;65.27
73628;BME280;61923;51.846;5.856;2023-01-16T10:56:50;97998.50;;;12.87;65.30
73628;BME280;61923;51.846;5.856;2023-01-16T10:59:17;98002.09;;;12.92;65.31
73628;BME280;61923;51.846;5.856;2023-01-16T11:01:44;97984.69;;;12.86;65.20
73628;BME280;61923;51.846;5.856;2023-01-16T11:04:11;97990.63;;;12.93;65.37
73628;BME280;61923;51.846;5.856;2023-01-16T11:06:37;97981.25;;;12.92;65.40
73628;BME280;61923;51.846;5.856;2023-01-16T11:09:06;97980.81;;;12.95;65.12
73628;BME280;61923;51.846;5.856;2023-01-16T11:11:35;97967.38;;;12.99;65.10
73628;BME280;61923;51.846;5.856;2023-01-16T11:14:26;97960.28;;;13.06;64.99
73628;BME280;61923;51.846;5.856;2023-01-16T11:20:13;97950.50;;;13.26;64.22
73628;BME280;61923;51.846;5.856;2023-01-16T11:22:41;97942.84;;;13.31;64.02
73628;BME280;61923;51.846;5.856;2023-01-16T11:25:14;97939.84;;;13.34;63.69
73628;BME280;61923;51.846;5.856;2023-01-16T11:27:43;97936.78;;;13.38;63.86
73628;BME280;61923;51.846;5.856;2023-01-16T11:30:16;97940.09;;;13.26;64.26
73628;BME280;61923;51.846;5.856;2023-01-16T11:32:44;97935.16;;;13.18;64.58
73628;BME280;61923;51.846;5.856;2023-01-16T11:35:14;97918.19;;;13.09;64.70
73628;BME280;61923;51.846;5.856;2023-01-16T11:37:43;97911.31;;;13.14;64.72
73628;BME280;61923;51.846;5.856;2023-01-16T11:40:18;97914.56;;;13.10;64.94
73628;BME280;61923;51.846;5.856;2023-01-16T11:42:57;97906.16;;;13.08;65.04
73628;BME280;61923;51.846;5.856;2023-01-16T11:45:48;97904.13;;;13.10;64.94
73628;BME280;61923;51.846;5.856;2023-01-16T11:48:41;97884.47;;;13.14;64.91
73628;BME280;61923;51.846;5.856;2023-01-16T11:51:16;97875.56;;;13.22;64.52
73628;BME280;61923;51.846;5.856;2023-01-16T11:53:44;97881.50;;;13.29;64.55
73628;BME280;61923;51.846;5.856;2023-01-16T12:01:55;97860.84;;;13.34;64.33
73628;BME280;61923;51.846;5.856;2023-01-16T12:11:02;97838.59;;;13.31;64.56
73628;BME280;61923;51.846;5.856;2023-01-16T12:19:48;97830.06;;;13.24;64.90
73628;BME280;61923;51.846;5.856;2023-01-16T12:29:09;97799.56;;;13.25;64.89
73628;BME280;61923;51.846;5.856;2023-01-16T12:31:27;97799.88;;;13.35;64.58
73628;BME280;61923;51.846;5.856;2023-01-16T12:42:25;97776.34;;;13.42;64.24
73628;BME280;61923;51.846;5.856;2023-01-16T12:54:11;97759.25;;;13.27;64.92
73628;BME280;61923;51.846;5.856;2023-01-16T12:58:58;97740.06;;;13.22;65.00
73628;BME280;61923;51.846;5.856;2023-01-16T13:01:39;97743.69;;;13.21;65.19
73628;BME280;61923;51.846;5.856;2023-01-16T13:04:29;97737.34;;;13.17;65.28
73628;BME280;61923;51.846;5.856;2023-01-16T13:06:59;97736.31;;;13.18;65.40
73628;BME280;61923;51.846;5.856;2023-01-16T13:09:35;97739.16;;;13.16;65.20
73628;BME280;61923;51.846;5.856;2023-01-16T13:12:28;97718.00;;;13.06;65.32
73628;BME280;61923;51.846;5.856;2023-01-16T13:15:22;97735.38;;;13.12;65.41
73628;BME280;61923;51.846;5.856;2023-01-16T13:20:19;97728.56;;;13.11;65.24
73628;BME280;61923;51.846;5.856;2023-01-16T13:22:56;97726.34;;;13.14;65.33
73628;BME280;61923;51.846;5.856;2023-01-16T13:25:33;97728.28;;;13.19;65.24
73628;BME280;61923;51.846;5.856;2023-01-16T13:28:05;97726.69;;;13.18;65.25
73628;BME280;61923;51.846;5.856;2023-01-16T13:30:31;97723.28;;;13.18;65.15
73628;BME280;61923;51.846;5.856;2023-01-16T13:33:03;97721.69;;;13.17;65.20
73628;BME280;61923;51.846;5.856;2023-01-16T13:43:29;97706.44;;;13.20;65.23
73628;BME280;61923;51.846;5.856;2023-01-16T13:46:15;97711.06;;;13.18;65.30
73628;BME280;61923;51.846;5.856;2023-01-16T13:48:41;97706.44;;;13.20;65.09
73628;BME280;61923;51.846;5.856;2023-01-16T13:51:14;97702.22;;;13.19;65.16
73628;BME280;61923;51.846;5.856;2023-01-16T13:53:41;97705.41;;;13.21;65.14
73628;BME280;61923;51.846;5.856;2023-01-16T13:56:13;97699.19;;;13.22;65.08
73628;BME280;61923;51.846;5.856;2023-01-16T13:58:42;97692.59;;;13.20;65.19
73628;BME280;61923;51.846;5.856;2023-01-16T14:02:01;97691.69;;;13.14;65.34
73628;BME280;61923;51.846;5.856;2023-01-16T14:06:57;97674.53;;;12.88;65.85
73628;BME280;61923;51.846;5.856;2023-01-16T14:10:15;97685.53;;;12.90;66.10
73628;BME280;61923;51.846;5.856;2023-01-16T14:13:00;97683.16;;;12.88;66.37
73628;BME280;61923;51.846;5.856;2023-01-16T14:15:46;97671.59;;;12.84;66.35
73628;BME280;61923;51.846;5.856;2023-01-16T14:24:05;97664.63;;;12.97;66.11
73628;BME280;61923;51.846;5.856;2023-01-16T14:26:56;97651.03;;;12.94;66.24
73628;BME280;61923;51.846;5.856;2023-01-16T14:30:05;97657.97;;;13.01;66.08
73628;BME280;61923;51.846;5.856;2023-01-16T14:34:40;97651.91;;;12.88;66.38
73628;BME280;61923;51.846;5.856;2023-01-16T14:37:19;97645.88;;;12.88;66.42
73628;BME280;61923;51.846;5.856;2023-01-16T14:39:55;97658.03;;;12.94;66.39
73628;BME280;61923;51.846;5.856;2023-01-16T14:48:12;97649.31;;;12.88;66.50
73628;BME280;61923;51.846;5.856;2023-01-16T14:57:18;97643.75;;;12.85;66.59
73628;BME280;61923;51.846;5.856;2023-01-16T15:00:14;97643.53;;;12.86;66.83
73628;BME280;61923;51.846;5.856;2023-01-16T15:02:48;97636.72;;;12.85;66.79
73628;BME280;61923;51.846;5.856;2023-01-16T15:05:21;97637.97;;;12.83;66.80
73628;BME280;61923;51.846;5.856;2023-01-16T15:07:56;97639.19;;;12.80;66.71
73628;BME280;61923;51.846;5.856;2023-01-16T15:10:30;97642.94;;;12.84;66.78
73628;BME280;61923;51.846;5.856;2023-01-16T15:15:56;97627.63;;;12.76;67.12
73628;BME280;61923;51.846;5.856;2023-01-16T15:18:23;97633.53;;;12.83;66.98
73628;BME280;61923;51.846;5.856;2023-01-16T15:21:26;97628.22;;;12.78;66.96
73628;BME280;61923;51.846;5.856;2023-01-16T15:24:17;97636.81;;;12.79;67.11
73628;BME280;61923;51.846;5.856;2023-01-16T15:32:15;97634.00;;;12.80;66.83
73628;BME280;61923;51.846;5.856;2023-01-16T15:34:45;97630.81;;;12.78;67.24
73628;BME280;61923;51.846;5.856;2023-01-16T15:37:20;97626.25;;;12.73;67.28
73628;BME280;61923;51.846;5.856;2023-01-16T15:39:46;97632.84;;;12.76;67.38